Ems Trader — CQGN — position and weather

sailwx.info

Track history (hours):
 
Tides and Currents Weather Stations Pressure Air Temp Water Temp Dewpoint Dewpoint Depression Visibility Wind Speed Wind Dir Waves Ship Positions

Ems Trader

Last reported at 2018-Feb-20 19:29 UTC. Time now 2018-Feb-20 19:34 UTC.
Position N 29°45' W 095°07'.

Length 199 m; draft 9.6 m.

Type: Ship (hazmat cat A). MMSI: 255805663.

Date/timePositionNaut miles runAvg speedWind from/ knotsBaromVisibWave heightAir tempDewpointWater temp
2018-Feb-20 19:29N 29°45' W 095°07'0 0.0
2018-Feb-20 18:59N 29°45' W 095°07'0 0.0
2018-Feb-20 18:11N 29°45' W 095°07'0 0.0
2018-Feb-20 17:41N 29°45' W 095°07'0 0.0
2018-Feb-20 17:23N 29°45' W 095°07'0 0.0
2018-Feb-20 16:53N 29°45' W 095°07'0 0.0
2018-Feb-20 15:17N 29°45' W 095°07'0 0.0
2018-Feb-20 14:59N 29°45' W 095°07'0 0.0
2018-Feb-20 14:29N 29°45' W 095°07'0 0.0
2018-Feb-20 13:59N 29°45' W 095°07'0 0.0
2018-Feb-20 13:29N 29°45' W 095°07'0 0.0
2018-Feb-20 12:59N 29°45' W 095°07'0 0.0
2018-Feb-20 11:11N 29°45' W 095°07'0 0.0
2018-Feb-20 10:53N 29°45' W 095°07'0 0.0
2018-Feb-20 10:20N 29°45' W 095°07'0 0.0
2018-Feb-20 09:50N 29°45' W 095°07'0 0.0
2018-Feb-20 09:26N 29°45' W 095°07'0 0.0
2018-Feb-20 08:53N 29°45' W 095°07'0 0.0
2018-Feb-20 08:29N 29°45' W 095°07'0 0.0
2018-Feb-20 07:56N 29°45' W 095°07'0 0.0
2018-Feb-20 07:26N 29°45' W 095°07'0 0.0
2018-Feb-20 06:59N 29°45' W 095°07'0 0.0
2018-Feb-20 06:29N 29°45' W 095°07'0 0.0
2018-Feb-20 05:53N 29°45' W 095°07'0 0.0
2018-Feb-20 05:29N 29°45' W 095°07'0 0.0
2018-Feb-20 04:53N 29°45' W 095°07'0 0.0
2018-Feb-20 04:26N 29°45' W 095°07'0 0.0
2018-Feb-20 03:59N 29°45' W 095°07'0 0.0
2018-Feb-20 03:29N 29°45' W 095°07'0 0.0
2018-Feb-20 02:56N 29°45' W 095°07'0 0.0
2018-Feb-20 02:26N 29°45' W 095°07'0 0.0
2018-Feb-20 01:59N 29°45' W 095°07'0 0.0
2018-Feb-20 01:20N 29°45' W 095°07'0 0.0
2018-Feb-20 00:59N 29°45' W 095°07'0 0.0
2018-Feb-20 00:29N 29°45' W 095°07'0 0.0
2018-Feb-19 23:59N 29°45' W 095°07'0 0.0
2018-Feb-19 23:26N 29°45' W 095°07'0 0.0
2018-Feb-19 22:56N 29°45' W 095°07'1 2.1
2018-Feb-19 22:30N 29°45' W 095°06'3 5.6
2018-Feb-19 22:00N 29°44' W 095°03'3 6.9
2018-Feb-19 21:30N 29°42' W 094°60'511.0
2018-Feb-19 21:00N 29°37' W 094°57'612.6
2018-Feb-19 20:30N 29°31' W 094°53'713.3
2018-Feb-19 20:00N 29°26' W 094°50'612.3
2018-Feb-19 19:30N 29°21' W 094°45'612.5
2018-Feb-19 18:59N 29°19' W 094°38'7 8.1
2018-Feb-19 18:06N 29°15' W 094°31'0 3.5
2018-Feb-19 17:58N 29°15' W 094°31'1 3.2
2018-Feb-19 17:30N 29°14' W 094°30'2 4.3
2018-Feb-19 17:00N 29°12' W 094°28'3 6.9
2018-Feb-19 16:30N 29°10' W 094°31'0 0.3
2018-Feb-19 15:46N 29°10' W 094°31'0 0.0
2018-Feb-19 15:25N 29°10' W 094°31'0 0.0
2018-Feb-19 14:55N 29°10' W 094°31'0 0.0
2018-Feb-19 14:10N 29°10' W 094°31'0 0.0
2018-Feb-19 13:55N 29°10' W 094°31'0 0.0
2018-Feb-19 12:19N 29°10' W 094°31'0 0.0
2018-Feb-19 11:07N 29°10' W 094°31'0 0.0
2018-Feb-19 10:49N 29°10' W 094°31'0 0.0
2018-Feb-19 10:28N 29°10' W 094°31'0 0.0
2018-Feb-19 09:58N 29°10' W 094°31'0 0.0
2018-Feb-19 09:22N 29°10' W 094°31'0 0.0
2018-Feb-19 08:58N 29°10' W 094°31'0 0.0
2018-Feb-19 08:25N 29°10' W 094°31'0 0.0
2018-Feb-19 07:58N 29°10' W 094°31'0 0.0
2018-Feb-19 07:28N 29°10' W 094°31'0 0.0
2018-Feb-19 06:55N 29°10' W 094°31'0 0.0
2018-Feb-19 06:28N 29°10' W 094°31'0 0.0
2018-Feb-19 05:58N 29°10' W 094°31'0 0.0
2018-Feb-19 05:25N 29°10' W 094°31'0 0.1
2018-Feb-19 04:58N 29°10' W 094°31'0 0.0
2018-Feb-19 03:55N 29°10' W 094°31'0 0.0
2018-Feb-19 03:25N 29°10' W 094°31'0 0.0
2018-Feb-18 23:01N 29°10' W 094°31'0 0.1
2018-Feb-18 22:55N 29°10' W 094°31'0 0.0
2018-Feb-18 22:28N 29°10' W 094°31'4 0.8
2018-Feb-18 18:00N 29°06' W 094°30'3 7.4 1021.3 0.0 23.417.623.0
2018-Feb-18 17:31N 29°09' W 094°31'0 0.0
2018-Feb-18 17:22N 29°09' W 094°31'0 0.0
2018-Feb-18 16:58N 29°09' W 094°31'0 0.0
2018-Feb-18 16:16N 29°09' W 094°31'0 0.0
2018-Feb-18 15:19N 29°09' W 094°31'0 0.0
2018-Feb-18 14:55N 29°09' W 094°31'0 0.0
2018-Feb-18 13:16N 29°09' W 094°31'0 0.0
2018-Feb-18 11:55N 29°09' W 094°31'0 0.0
2018-Feb-18 08:55N 29°09' W 094°31'0 0.0
2018-Feb-18 08:28N 29°09' W 094°31'0 0.0
2018-Feb-18 07:55N 29°09' W 094°31'0 0.1
2018-Feb-18 07:22N 29°09' W 094°31'0 0.0
2018-Feb-18 06:55N 29°09' W 094°31'0 0.0
2018-Feb-18 06:25N 29°09' W 094°31'0 0.0
2018-Feb-18 05:40N 29°09' W 094°31'0 0.0
2018-Feb-18 05:28N 29°09' W 094°31'0 0.0
2018-Feb-18 04:58N 29°09' W 094°31'0 0.0
2018-Feb-18 03:28N 29°09' W 094°31'0 0.0
2018-Feb-18 02:46N 29°09' W 094°31'0 0.0
2018-Feb-18 02:19N 29°09' W 094°31'0 0.0
2018-Feb-18 01:58N 29°09' W 094°31'0 0.0
2018-Feb-18 01:28N 29°09' W 094°31'0 0.0
2018-Feb-18 00:58N 29°09' W 094°31'0 0.0
2018-Feb-18 00:07N 29°09' W 094°31'0 0.0
2018-Feb-17 23:55N 29°09' W 094°31'0 0.0
2018-Feb-17 23:19N 29°09' W 094°31'0 0.0
2018-Feb-17 22:52N 29°09' W 094°31'0 0.0
2018-Feb-17 22:22N 29°09' W 094°31'0 0.0
2018-Feb-17 21:52N 29°09' W 094°31'0 0.0
2018-Feb-17 21:25N 29°09' W 094°31'0 0.0
2018-Feb-17 20:58N 29°09' W 094°31'0 0.0
2018-Feb-17 10:34N 29°10' W 094°31'0 0.0
2018-Feb-17 07:13N 29°10' W 094°31'0 0.0
2018-Feb-17 06:58N 29°10' W 094°31'0 0.0
2018-Feb-17 06:22N 29°10' W 094°31'4 9.7
2018-Feb-17 06:00N 29°06' W 094°30'4185.0 1019.2 0.0 21.018.021.0
2018-Feb-17 05:58N 29°10' W 094°31'0 0.0
2018-Feb-17 05:28N 29°10' W 094°31'0 0.0
2018-Feb-17 01:55N 29°10' W 094°31'0 0.0
2018-Feb-17 01:28N 29°10' W 094°31'0 0.0
2018-Feb-16 23:40N 29°10' W 094°31'4 0.7
2018-Feb-16 18:00N 29°06' W 094°30'4 0.4 180 / 41021.9 0.5 25.321.224.0
2018-Feb-16 08:55N 29°10' W 094°30'611.7
2018-Feb-16 08:25N 29°10' W 094°23'715.5
2018-Feb-16 07:57N 29°06' W 094°16'715.7
2018-Feb-16 07:30N 29°02' W 094°10'815.9
2018-Feb-16 07:00N 28°57' W 094°02'815.9
2018-Feb-16 06:30N 28°53' W 093°55'816.0
2018-Feb-16 06:00N 28°48' W 093°47'815.9
2018-Feb-16 05:30N 28°44' W 093°40'815.9
2018-Feb-16 05:00N 28°40' W 093°32'816.0
2018-Feb-16 04:30N 28°35' W 093°25'916.1
2018-Feb-16 03:55N 28°29' W 093°17'716.4
2018-Feb-16 03:28N 28°25' W 093°10'816.6
2018-Feb-16 03:00N 28°20' W 093°03'816.1
2018-Feb-16 02:30N 28°15' W 092°56'1415.7
2018-Feb-16 01:36N 28°04' W 092°45'716.1
2018-Feb-16 01:10N 27°59' W 092°40'7517.9
2018-Feb-15 21:00N 27°00' W 091°48'21814.5 090 / 101024.0 5.4 24.014.125.0
2018-Feb-15 06:00N 24°18' W 089°06'   050 / 251025.010.8 24.619.924.0
2018-Feb-12 18:00N 15°48' W 088°36'41411.5 320 / 61017.910.8 30.422.829.0
2018-Feb-11 06:00N 14°54' W 081°30'   050 / 211014.510.8 27.322.326.0
Track history (hours):
 
Tides and Currents Weather Stations Pressure Air Temp Water Temp Dewpoint Dewpoint Depression Visibility Wind Speed Wind Dir Waves Ship Positions

Ems Trader

Last reported at 2018-Feb-20 19:29 UTC. Time now 2018-Feb-20 19:34 UTC.
Position N 29°45' W 095°07'.

Length 199 m; draft 9.6 m.

Type: Ship (hazmat cat A). MMSI: 255805663.

Date/timePositionNaut miles runAvg speedWind from/ knotsBaromVisibWave heightAir tempDewpointWater temp
2018-Feb-20 19:29N 29°45' W 095°07'0 0.0
2018-Feb-20 18:59N 29°45' W 095°07'0 0.0
2018-Feb-20 18:11N 29°45' W 095°07'0 0.0
2018-Feb-20 17:41N 29°45' W 095°07'0 0.0
2018-Feb-20 17:23N 29°45' W 095°07'0 0.0
2018-Feb-20 16:53N 29°45' W 095°07'0 0.0
2018-Feb-20 15:17N 29°45' W 095°07'0 0.0
2018-Feb-20 14:59N 29°45' W 095°07'0 0.0
2018-Feb-20 14:29N 29°45' W 095°07'0 0.0
2018-Feb-20 13:59N 29°45' W 095°07'0 0.0
2018-Feb-20 13:29N 29°45' W 095°07'0 0.0
2018-Feb-20 12:59N 29°45' W 095°07'0 0.0
2018-Feb-20 11:11N 29°45' W 095°07'0 0.0
2018-Feb-20 10:53N 29°45' W 095°07'0 0.0
2018-Feb-20 10:20N 29°45' W 095°07'0 0.0
2018-Feb-20 09:50N 29°45' W 095°07'0 0.0
2018-Feb-20 09:26N 29°45' W 095°07'0 0.0
2018-Feb-20 08:53N 29°45' W 095°07'0 0.0
2018-Feb-20 08:29N 29°45' W 095°07'0 0.0
2018-Feb-20 07:56N 29°45' W 095°07'0 0.0
2018-Feb-20 07:26N 29°45' W 095°07'0 0.0
2018-Feb-20 06:59N 29°45' W 095°07'0 0.0
2018-Feb-20 06:29N 29°45' W 095°07'0 0.0
2018-Feb-20 05:53N 29°45' W 095°07'0 0.0
2018-Feb-20 05:29N 29°45' W 095°07'0 0.0
2018-Feb-20 04:53N 29°45' W 095°07'0 0.0
2018-Feb-20 04:26N 29°45' W 095°07'0 0.0
2018-Feb-20 03:59N 29°45' W 095°07'0 0.0
2018-Feb-20 03:29N 29°45' W 095°07'0 0.0
2018-Feb-20 02:56N 29°45' W 095°07'0 0.0
2018-Feb-20 02:26N 29°45' W 095°07'0 0.0
2018-Feb-20 01:59N 29°45' W 095°07'0 0.0
2018-Feb-20 01:20N 29°45' W 095°07'0 0.0
2018-Feb-20 00:59N 29°45' W 095°07'0 0.0
2018-Feb-20 00:29N 29°45' W 095°07'0 0.0
2018-Feb-19 23:59N 29°45' W 095°07'0 0.0
2018-Feb-19 23:26N 29°45' W 095°07'0 0.0
2018-Feb-19 22:56N 29°45' W 095°07'1 2.1
2018-Feb-19 22:30N 29°45' W 095°06'3 5.6
2018-Feb-19 22:00N 29°44' W 095°03'3 6.9
2018-Feb-19 21:30N 29°42' W 094°60'511.0
2018-Feb-19 21:00N 29°37' W 094°57'612.6
2018-Feb-19 20:30N 29°31' W 094°53'713.3
2018-Feb-19 20:00N 29°26' W 094°50'612.3
2018-Feb-19 19:30N 29°21' W 094°45'612.5
2018-Feb-19 18:59N 29°19' W 094°38'7 8.1
2018-Feb-19 18:06N 29°15' W 094°31'0 3.5
2018-Feb-19 17:58N 29°15' W 094°31'1 3.2
2018-Feb-19 17:30N 29°14' W 094°30'2 4.3
2018-Feb-19 17:00N 29°12' W 094°28'3 6.9
2018-Feb-19 16:30N 29°10' W 094°31'0 0.3
2018-Feb-19 15:46N 29°10' W 094°31'0 0.0
2018-Feb-19 15:25N 29°10' W 094°31'0 0.0
2018-Feb-19 14:55N 29°10' W 094°31'0 0.0
2018-Feb-19 14:10N 29°10' W 094°31'0 0.0
2018-Feb-19 13:55N 29°10' W 094°31'0 0.0
2018-Feb-19 12:19N 29°10' W 094°31'0 0.0
2018-Feb-19 11:07N 29°10' W 094°31'0 0.0
2018-Feb-19 10:49N 29°10' W 094°31'0 0.0
2018-Feb-19 10:28N 29°10' W 094°31'0 0.0
2018-Feb-19 09:58N 29°10' W 094°31'0 0.0
2018-Feb-19 09:22N 29°10' W 094°31'0 0.0
2018-Feb-19 08:58N 29°10' W 094°31'0 0.0
2018-Feb-19 08:25N 29°10' W 094°31'0 0.0
2018-Feb-19 07:58N 29°10' W 094°31'0 0.0
2018-Feb-19 07:28N 29°10' W 094°31'0 0.0
2018-Feb-19 06:55N 29°10' W 094°31'0 0.0
2018-Feb-19 06:28N 29°10' W 094°31'0 0.0
2018-Feb-19 05:58N 29°10' W 094°31'0 0.0
2018-Feb-19 05:25N 29°10' W 094°31'0 0.1
2018-Feb-19 04:58N 29°10' W 094°31'0 0.0
2018-Feb-19 03:55N 29°10' W 094°31'0 0.0
2018-Feb-19 03:25N 29°10' W 094°31'0 0.0
2018-Feb-18 23:01N 29°10' W 094°31'0 0.1
2018-Feb-18 22:55N 29°10' W 094°31'0 0.0
2018-Feb-18 22:28N 29°10' W 094°31'4 0.8
2018-Feb-18 18:00N 29°06' W 094°30'3 7.4 1021.3 0.0 23.417.623.0
2018-Feb-18 17:31N 29°09' W 094°31'0 0.0
2018-Feb-18 17:22N 29°09' W 094°31'0 0.0
2018-Feb-18 16:58N 29°09' W 094°31'0 0.0
2018-Feb-18 16:16N 29°09' W 094°31'0 0.0
2018-Feb-18 15:19N 29°09' W 094°31'0 0.0
2018-Feb-18 14:55N 29°09' W 094°31'0 0.0
2018-Feb-18 13:16N 29°09' W 094°31'0 0.0
2018-Feb-18 11:55N 29°09' W 094°31'0 0.0
2018-Feb-18 08:55N 29°09' W 094°31'0 0.0
2018-Feb-18 08:28N 29°09' W 094°31'0 0.0
2018-Feb-18 07:55N 29°09' W 094°31'0 0.1
2018-Feb-18 07:22N 29°09' W 094°31'0 0.0
2018-Feb-18 06:55N 29°09' W 094°31'0 0.0
2018-Feb-18 06:25N 29°09' W 094°31'0 0.0
2018-Feb-18 05:40N 29°09' W 094°31'0 0.0
2018-Feb-18 05:28N 29°09' W 094°31'0 0.0
2018-Feb-18 04:58N 29°09' W 094°31'0 0.0
2018-Feb-18 03:28N 29°09' W 094°31'0 0.0
2018-Feb-18 02:46N 29°09' W 094°31'0 0.0
2018-Feb-18 02:19N 29°09' W 094°31'0 0.0
2018-Feb-18 01:58N 29°09' W 094°31'0 0.0
2018-Feb-18 01:28N 29°09' W 094°31'0 0.0
2018-Feb-18 00:58N 29°09' W 094°31'0 0.0
2018-Feb-18 00:07N 29°09' W 094°31'0 0.0
2018-Feb-17 23:55N 29°09' W 094°31'0 0.0
2018-Feb-17 23:19N 29°09' W 094°31'0 0.0
2018-Feb-17 22:52N 29°09' W 094°31'0 0.0
2018-Feb-17 22:22N 29°09' W 094°31'0 0.0
2018-Feb-17 21:52N 29°09' W 094°31'0 0.0
2018-Feb-17 21:25N 29°09' W 094°31'0 0.0
2018-Feb-17 20:58N 29°09' W 094°31'0 0.0
2018-Feb-17 10:34N 29°10' W 094°31'0 0.0
2018-Feb-17 07:13N 29°10' W 094°31'0 0.0
2018-Feb-17 06:58N 29°10' W 094°31'0 0.0
2018-Feb-17 06:22N 29°10' W 094°31'4 9.7
2018-Feb-17 06:00N 29°06' W 094°30'4185.0 1019.2 0.0 21.018.021.0
2018-Feb-17 05:58N 29°10' W 094°31'0 0.0
2018-Feb-17 05:28N 29°10' W 094°31'0 0.0
2018-Feb-17 01:55N 29°10' W 094°31'0 0.0
2018-Feb-17 01:28N 29°10' W 094°31'0 0.0
2018-Feb-16 23:40N 29°10' W 094°31'4 0.7
2018-Feb-16 18:00N 29°06' W 094°30'4 0.4 180 / 41021.9 0.5 25.321.224.0
2018-Feb-16 08:55N 29°10' W 094°30'611.7
2018-Feb-16 08:25N 29°10' W 094°23'715.5
2018-Feb-16 07:57N 29°06' W 094°16'715.7
2018-Feb-16 07:30N 29°02' W 094°10'815.9
2018-Feb-16 07:00N 28°57' W 094°02'815.9
2018-Feb-16 06:30N 28°53' W 093°55'816.0
2018-Feb-16 06:00N 28°48' W 093°47'815.9
2018-Feb-16 05:30N 28°44' W 093°40'815.9
2018-Feb-16 05:00N 28°40' W 093°32'816.0
2018-Feb-16 04:30N 28°35' W 093°25'916.1
2018-Feb-16 03:55N 28°29' W 093°17'716.4
2018-Feb-16 03:28N 28°25' W 093°10'816.6
2018-Feb-16 03:00N 28°20' W 093°03'816.1
2018-Feb-16 02:30N 28°15' W 092°56'1415.7
2018-Feb-16 01:36N 28°04' W 092°45'716.1
2018-Feb-16 01:10N 27°59' W 092°40'7517.9
2018-Feb-15 21:00N 27°00' W 091°48'21814.5 090 / 101024.0 5.4 24.014.125.0
2018-Feb-15 06:00N 24°18' W 089°06'   050 / 251025.010.8 24.619.924.0
2018-Feb-12 18:00N 15°48' W 088°36'41411.5 320 / 61017.910.8 30.422.829.0
2018-Feb-11 06:00N 14°54' W 081°30'   050 / 211014.510.8 27.322.326.0

Dump ship's entire track history